sensor_id;sensor_type;location;lat;lon;timestamp;pressure;altitude;pressure_sealevel;temperature;humidity
24666;BME280;29726;53.532;-1.478;2023-08-07T00:01:34;100821.34;;;20.18;nan
24666;BME280;29726;53.532;-1.478;2023-08-07T00:04:17;100819.03;;;20.17;nan
24666;BME280;29726;53.532;-1.478;2023-08-07T00:07:01;100823.16;;;20.16;nan
24666;BME280;29726;53.532;-1.478;2023-08-07T00:09:46;100803.84;;;20.14;nan
24666;BME280;29726;53.532;-1.478;2023-08-07T00:12:30;100816.72;;;20.15;nan
24666;BME280;29726;53.532;-1.478;2023-08-07T00:15:14;100823.44;;;20.12;nan
24666;BME280;29726;53.532;-1.478;2023-08-07T00:17:58;100821.16;;;20.11;nan
24666;BME280;29726;53.532;-1.478;2023-08-07T00:20:43;100805.94;;;20.08;nan
24666;BME280;29726;53.532;-1.478;2023-08-07T00:26:10;100817.56;;;20.05;nan
24666;BME280;29726;53.532;-1.478;2023-08-07T00:28:55;100815.28;;;20.03;nan
24666;BME280;29726;53.532;-1.478;2023-08-07T00:31:39;100794.94;;;19.94;nan
24666;BME280;29726;53.532;-1.478;2023-08-07T00:37:07;100799.81;;;19.93;nan
24666;BME280;29726;53.532;-1.478;2023-08-07T00:42:35;100803.19;;;19.92;nan
24666;BME280;29726;53.532;-1.478;2023-08-07T00:45:20;100776.47;;;19.82;nan
24666;BME280;29726;53.532;-1.478;2023-08-07T00:50:49;100795.50;;;19.87;nan
24666;BME280;29726;53.532;-1.478;2023-08-07T00:59:06;100785.00;;;19.76;nan
24666;BME280;29726;53.532;-1.478;2023-08-07T01:04:34;100786.31;;;19.70;nan
24666;BME280;29726;53.532;-1.478;2023-08-07T01:07:18;100790.94;;;19.73;nan
24666;BME280;29726;53.532;-1.478;2023-08-07T01:12:52;100801.06;;;19.57;nan
24666;BME280;29726;53.532;-1.478;2023-08-07T01:15:42;100777.84;;;19.64;nan
24666;BME280;29726;53.532;-1.478;2023-08-07T01:18:26;100787.66;;;19.63;nan
24666;BME280;29726;53.532;-1.478;2023-08-07T01:21:18;100778.91;;;19.61;nan
24666;BME280;29726;53.532;-1.478;2023-08-07T01:24:02;100784.56;;;19.61;nan
24666;BME280;29726;53.532;-1.478;2023-08-07T01:26:46;100762.19;;;19.58;nan
24666;BME280;29726;53.532;-1.478;2023-08-07T01:32:30;100771.97;;;19.57;nan
24666;BME280;29726;53.532;-1.478;2023-08-07T01:38:05;100764.28;;;19.52;nan
24666;BME280;29726;53.532;-1.478;2023-08-07T01:40:50;100758.88;;;19.48;nan
24666;BME280;29726;53.532;-1.478;2023-08-07T01:46:18;100757.63;;;19.44;nan
24666;BME280;29726;53.532;-1.478;2023-08-07T01:51:47;100765.34;;;19.43;nan
24666;BME280;29726;53.532;-1.478;2023-08-07T01:59:59;100741.47;;;19.33;nan
24666;BME280;29726;53.532;-1.478;2023-08-07T02:02:43;100744.81;;;19.32;nan
24666;BME280;29726;53.532;-1.478;2023-08-07T02:13:41;100742.03;;;19.26;nan
24666;BME280;29726;53.532;-1.478;2023-08-07T02:19:09;100755.16;;;19.24;nan
24666;BME280;29726;53.532;-1.478;2023-08-07T02:24:36;100749.00;;;19.20;nan
24666;BME280;29726;53.532;-1.478;2023-08-07T02:30:05;100764.44;;;19.08;nan
24666;BME280;29726;53.532;-1.478;2023-08-07T02:38:17;100738.97;;;19.08;nan
24666;BME280;29726;53.532;-1.478;2023-08-07T02:41:01;100754.66;;;19.09;nan
24666;BME280;29726;53.532;-1.478;2023-08-07T02:43:45;100748.25;;;19.08;nan
24666;BME280;29726;53.532;-1.478;2023-08-07T02:49:13;100745.69;;;18.99;nan
24666;BME280;29726;53.532;-1.478;2023-08-07T02:57:25;100749.03;;;18.98;nan
24666;BME280;29726;53.532;-1.478;2023-08-07T03:02:53;100743.66;;;18.94;nan
24666;BME280;29726;53.532;-1.478;2023-08-07T03:05:37;100750.84;;;18.95;nan
24666;BME280;29726;53.532;-1.478;2023-08-07T03:08:21;100746.47;;;18.89;nan
24666;BME280;29726;53.532;-1.478;2023-08-07T03:11:05;100757.28;;;18.90;nan
24666;BME280;29726;53.532;-1.478;2023-08-07T03:13:49;100755.50;;;18.87;nan
24666;BME280;29726;53.532;-1.478;2023-08-07T03:16:33;100740.88;;;18.78;nan
24666;BME280;29726;53.532;-1.478;2023-08-07T03:24:49;100742.41;;;18.79;nan
24666;BME280;29726;53.532;-1.478;2023-08-07T03:30:16;100728.56;;;18.70;nan
24666;BME280;29726;53.532;-1.478;2023-08-07T03:33:01;100736.25;;;18.75;nan
24666;BME280;29726;53.532;-1.478;2023-08-07T03:38:29;100735.47;;;18.74;nan
24666;BME280;29726;53.532;-1.478;2023-08-07T03:41:13;100722.66;;;18.62;nan
24666;BME280;29726;53.532;-1.478;2023-08-07T03:43:57;100739.09;;;18.69;nan
24666;BME280;29726;53.532;-1.478;2023-08-07T03:54:54;100731.38;;;18.64;nan
24666;BME280;29726;53.532;-1.478;2023-08-07T03:57:38;100726.78;;;18.61;nan
24666;BME280;29726;53.532;-1.478;2023-08-07T04:03:05;100738.84;;;18.62;nan
24666;BME280;29726;53.532;-1.478;2023-08-07T04:05:53;100739.63;;;18.62;nan
24666;BME280;29726;53.532;-1.478;2023-08-07T04:08:37;100728.56;;;18.59;nan
24666;BME280;29726;53.532;-1.478;2023-08-07T04:11:21;100732.69;;;18.58;nan
24666;BME280;29726;53.532;-1.478;2023-08-07T04:19:33;100727.56;;;18.51;nan
24666;BME280;29726;53.532;-1.478;2023-08-07T04:27:45;100740.41;;;18.52;nan
24666;BME280;29726;53.532;-1.478;2023-08-07T04:30:29;100751.72;;;18.52;nan
24666;BME280;29726;53.532;-1.478;2023-08-07T04:33:13;100750.19;;;18.51;nan
24666;BME280;29726;53.532;-1.478;2023-08-07T04:38:40;100745.03;;;18.44;nan
24666;BME280;29726;53.532;-1.478;2023-08-07T04:41:25;100756.63;;;18.46;nan
24666;BME280;29726;53.532;-1.478;2023-08-07T04:55:05;100746.84;;;18.42;nan
24666;BME280;29726;53.532;-1.478;2023-08-07T05:08:46;100737.88;;;18.38;nan
24666;BME280;29726;53.532;-1.478;2023-08-07T05:14:14;100740.94;;;18.34;nan
24666;BME280;29726;53.532;-1.478;2023-08-07T05:16:58;100740.19;;;18.34;nan
24666;BME280;29726;53.532;-1.478;2023-08-07T05:25:11;100748.13;;;18.35;nan
24666;BME280;29726;53.532;-1.478;2023-08-07T05:27:59;100729.63;;;18.29;nan
24666;BME280;29726;53.532;-1.478;2023-08-07T05:30:43;100738.63;;;18.33;nan
24666;BME280;29726;53.532;-1.478;2023-08-07T05:33:27;100731.41;;;18.32;nan
24666;BME280;29726;53.532;-1.478;2023-08-07T05:36:11;100720.41;;;18.28;nan
24666;BME280;29726;53.532;-1.478;2023-08-07T05:44:23;100736.31;;;18.31;nan
24666;BME280;29726;53.532;-1.478;2023-08-07T05:47:07;100744.53;;;18.29;nan
24666;BME280;29726;53.532;-1.478;2023-08-07T05:52:35;100734.50;;;18.23;nan
24666;BME280;29726;53.532;-1.478;2023-08-07T06:08:59;100765.63;;;18.28;nan
24666;BME280;29726;53.532;-1.478;2023-08-07T06:14:27;100763.28;;;18.27;nan
24666;BME280;29726;53.532;-1.478;2023-08-07T06:17:12;100768.69;;;18.30;nan
24666;BME280;29726;53.532;-1.478;2023-08-07T06:19:56;100753.78;;;18.24;nan
24666;BME280;29726;53.532;-1.478;2023-08-07T06:30:52;100757.41;;;18.30;nan
24666;BME280;29726;53.532;-1.478;2023-08-07T06:39:04;100756.88;;;18.37;nan
24666;BME280;29726;53.532;-1.478;2023-08-07T06:41:48;100753.53;;;18.39;nan
24666;BME280;29726;53.532;-1.478;2023-08-07T06:55:27;100756.59;;;18.51;nan
24666;BME280;29726;53.532;-1.478;2023-08-07T07:03:39;100750.16;;;18.62;nan
24666;BME280;29726;53.532;-1.478;2023-08-07T07:14:37;100754.25;;;18.72;nan
24666;BME280;29726;53.532;-1.478;2023-08-07T07:25:33;100752.66;;;18.93;nan
24666;BME280;29726;53.532;-1.478;2023-08-07T07:28:17;100766.53;;;19.02;nan
24666;BME280;29726;53.532;-1.478;2023-08-07T07:31:01;100741.34;;;18.93;nan
24666;BME280;29726;53.532;-1.478;2023-08-07T07:33:47;100746.97;;;19.04;nan
24666;BME280;29726;53.532;-1.478;2023-08-07T07:36:32;100762.38;;;19.19;nan
24666;BME280;29726;53.532;-1.478;2023-08-07T07:41:59;100749.97;;;19.28;nan
24666;BME280;29726;53.532;-1.478;2023-08-07T07:44:43;100748.66;;;19.34;nan
24666;BME280;29726;53.532;-1.478;2023-08-07T07:47:27;100757.63;;;19.44;nan
24666;BME280;29726;53.532;-1.478;2023-08-07T07:52:56;100735.94;;;19.52;nan
24666;BME280;29726;53.532;-1.478;2023-08-07T07:55:40;100705.38;;;19.39;nan
24666;BME280;29726;53.532;-1.478;2023-08-07T08:01:08;100733.50;;;19.72;nan
24666;BME280;29726;53.532;-1.478;2023-08-07T08:03:52;100740.41;;;19.82;nan
24666;BME280;29726;53.532;-1.478;2023-08-07T08:09:20;100751.13;;;19.95;nan
24666;BME280;29726;53.532;-1.478;2023-08-07T08:12:04;100736.16;;;20.00;nan
24666;BME280;29726;53.532;-1.478;2023-08-07T08:14:48;100734.84;;;20.06;nan
24666;BME280;29726;53.532;-1.478;2023-08-07T08:17:33;100733.50;;;20.13;nan
24666;BME280;29726;53.532;-1.478;2023-08-07T08:20:17;100732.16;;;20.19;nan
24666;BME280;29726;53.532;-1.478;2023-08-07T08:23:05;100721.78;;;20.27;nan
24666;BME280;29726;53.532;-1.478;2023-08-07T08:28:33;100727.28;;;20.43;nan
24666;BME280;29726;53.532;-1.478;2023-08-07T08:31:17;100730.31;;;20.51;nan
24666;BME280;29726;53.532;-1.478;2023-08-07T08:34:02;100685.63;;;20.33;nan
24666;BME280;29726;53.532;-1.478;2023-08-07T08:39:31;100726.25;;;20.70;nan
24666;BME280;29726;53.532;-1.478;2023-08-07T08:42:16;100734.13;;;20.83;nan
24666;BME280;29726;53.532;-1.478;2023-08-07T08:45:03;100720.66;;;20.89;nan
24666;BME280;29726;53.532;-1.478;2023-08-07T08:47:50;100721.88;;;20.93;nan
24666;BME280;29726;53.532;-1.478;2023-08-07T08:56:04;100734.16;;;21.25;nan
24666;BME280;29726;53.532;-1.478;2023-08-07T08:58:50;100723.16;;;21.35;nan
24666;BME280;29726;53.532;-1.478;2023-08-07T09:01:34;100732.06;;;21.44;nan
24666;BME280;29726;53.532;-1.478;2023-08-07T09:04:19;100715.03;;;21.44;nan
24666;BME280;29726;53.532;-1.478;2023-08-07T09:09:49;100719.88;;;21.68;nan
24666;BME280;29726;53.532;-1.478;2023-08-07T09:15:21;100730.38;;;21.91;nan
24666;BME280;29726;53.532;-1.478;2023-08-07T09:18:07;100746.38;;;21.94;nan
24666;BME280;29726;53.532;-1.478;2023-08-07T09:20:51;100707.91;;;22.06;nan
24666;BME280;29726;53.532;-1.478;2023-08-07T09:23:35;100700.47;;;22.16;nan
24666;BME280;29726;53.532;-1.478;2023-08-07T09:29:08;100705.06;;;22.37;nan
24666;BME280;29726;53.532;-1.478;2023-08-07T09:31:54;100653.13;;;22.18;nan
24666;BME280;29726;53.532;-1.478;2023-08-07T09:34:42;100703.78;;;22.51;nan
24666;BME280;29726;53.532;-1.478;2023-08-07T09:40:11;100706.31;;;22.68;nan
24666;BME280;29726;53.532;-1.478;2023-08-07T09:45:40;100720.88;;;22.77;nan
24666;BME280;29726;53.532;-1.478;2023-08-07T09:51:12;100707.28;;;22.83;nan
24666;BME280;29726;53.532;-1.478;2023-08-07T09:53:57;100708.16;;;22.91;nan
24666;BME280;29726;53.532;-1.478;2023-08-07T09:56:43;100744.31;;;22.96;nan
24666;BME280;29726;53.532;-1.478;2023-08-07T09:59:27;100700.72;;;23.01;nan
24666;BME280;29726;53.532;-1.478;2023-08-07T10:02:11;100693.94;;;23.04;nan
24666;BME280;29726;53.532;-1.478;2023-08-07T10:07:40;100696.78;;;23.17;nan
24666;BME280;29726;53.532;-1.478;2023-08-07T10:10:24;100686.59;;;23.22;nan
24666;BME280;29726;53.532;-1.478;2023-08-07T10:13:09;100676.81;;;23.30;nan
24666;BME280;29726;53.532;-1.478;2023-08-07T10:15:55;100672.75;;;23.39;nan
24666;BME280;29726;53.532;-1.478;2023-08-07T10:18:39;100678.09;;;23.42;nan
24666;BME280;29726;53.532;-1.478;2023-08-07T10:21:24;100693.31;;;23.45;nan
24666;BME280;29726;53.532;-1.478;2023-08-07T10:24:10;100666.75;;;23.63;nan
24666;BME280;29726;53.532;-1.478;2023-08-07T10:26:55;100682.59;;;23.71;nan
24666;BME280;29726;53.532;-1.478;2023-08-07T10:29:40;100677.00;;;23.78;nan
24666;BME280;29726;53.532;-1.478;2023-08-07T10:32:25;100664.13;;;23.85;nan
24666;BME280;29726;53.532;-1.478;2023-08-07T10:35:23;100659.97;;;23.86;nan
24666;BME280;29726;53.532;-1.478;2023-08-07T10:41:07;100670.81;;;24.08;nan
24666;BME280;29726;53.532;-1.478;2023-08-07T10:43:52;100644.59;;;24.09;nan
24666;BME280;29726;53.532;-1.478;2023-08-07T10:47:06;100657.66;;;24.25;nan
24666;BME280;29726;53.532;-1.478;2023-08-07T10:49:50;100658.81;;;24.30;nan
24666;BME280;29726;53.532;-1.478;2023-08-07T10:52:38;100651.25;;;24.32;nan
24666;BME280;29726;53.532;-1.478;2023-08-07T10:55:23;100653.56;;;24.41;nan
24666;BME280;29726;53.532;-1.478;2023-08-07T11:04:14;100657.97;;;24.63;nan
24666;BME280;29726;53.532;-1.478;2023-08-07T11:06:58;100653.19;;;24.65;nan
24666;BME280;29726;53.532;-1.478;2023-08-07T11:09:42;100657.97;;;24.70;nan
24666;BME280;29726;53.532;-1.478;2023-08-07T11:15:12;100653.09;;;24.78;nan
24666;BME280;29726;53.532;-1.478;2023-08-07T11:17:57;100649.31;;;24.83;nan
24666;BME280;29726;53.532;-1.478;2023-08-07T11:20:41;100668.78;;;24.92;nan
24666;BME280;29726;53.532;-1.478;2023-08-07T11:23:25;100661.19;;;24.95;nan
24666;BME280;29726;53.532;-1.478;2023-08-07T11:28:55;100667.69;;;25.03;nan
24666;BME280;29726;53.532;-1.478;2023-08-07T11:31:39;100672.28;;;25.06;nan
24666;BME280;29726;53.532;-1.478;2023-08-07T11:34:23;100674.94;;;25.04;nan
24666;BME280;29726;53.532;-1.478;2023-08-07T11:37:07;100686.78;;;25.08;nan
24666;BME280;29726;53.532;-1.478;2023-08-07T11:40:02;100647.81;;;24.90;nan
24666;BME280;29726;53.532;-1.478;2023-08-07T11:42:46;100677.63;;;25.09;nan
24666;BME280;29726;53.532;-1.478;2023-08-07T11:45:31;100652.50;;;25.08;nan
24666;BME280;29726;53.532;-1.478;2023-08-07T11:48:15;100657.81;;;25.11;nan
24666;BME280;29726;53.532;-1.478;2023-08-07T11:51:00;100662.09;;;25.18;nan
24666;BME280;29726;53.532;-1.478;2023-08-07T11:53:44;100626.16;;;25.02;nan
24666;BME280;29726;53.532;-1.478;2023-08-07T11:59:16;100655.25;;;25.28;nan
24666;BME280;29726;53.532;-1.478;2023-08-07T12:02:09;100660.22;;;25.35;nan
24666;BME280;29726;53.532;-1.478;2023-08-07T12:07:42;100645.00;;;25.40;nan
24666;BME280;29726;53.532;-1.478;2023-08-07T12:13:12;100650.38;;;25.51;nan
24666;BME280;29726;53.532;-1.478;2023-08-07T12:15:57;100680.13;;;25.56;nan
24666;BME280;29726;53.532;-1.478;2023-08-07T12:18:49;100652.69;;;25.60;nan
24666;BME280;29726;53.532;-1.478;2023-08-07T12:21:33;100647.34;;;25.64;nan
24666;BME280;29726;53.532;-1.478;2023-08-07T12:24:18;100647.38;;;25.71;nan
24666;BME280;29726;53.532;-1.478;2023-08-07T12:27:05;100656.91;;;25.74;nan
24666;BME280;29726;53.532;-1.478;2023-08-07T12:29:49;100650.81;;;25.77;nan
24666;BME280;29726;53.532;-1.478;2023-08-07T12:35:17;100649.31;;;25.91;nan
24666;BME280;29726;53.532;-1.478;2023-08-07T12:38:01;100656.97;;;25.96;nan
24666;BME280;29726;53.532;-1.478;2023-08-07T12:40:48;100684.47;;;25.99;nan
24666;BME280;29726;53.532;-1.478;2023-08-07T12:46:15;100692.28;;;26.06;nan
24666;BME280;29726;53.532;-1.478;2023-08-07T12:51:43;100685.97;;;26.08;nan
24666;BME280;29726;53.532;-1.478;2023-08-07T12:54:27;100694.75;;;26.10;nan
24666;BME280;29726;53.532;-1.478;2023-08-07T12:57:11;100702.41;;;26.15;nan
24666;BME280;29726;53.532;-1.478;2023-08-07T12:59:55;100703.16;;;26.23;nan
24666;BME280;29726;53.532;-1.478;2023-08-07T13:02:43;100703.72;;;26.29;nan
24666;BME280;29726;53.532;-1.478;2023-08-07T13:05:28;100686.00;;;26.23;nan
24666;BME280;29726;53.532;-1.478;2023-08-07T13:08:14;100709.28;;;26.34;nan
24666;BME280;29726;53.532;-1.478;2023-08-07T13:10:57;100706.59;;;26.36;nan
24666;BME280;29726;53.532;-1.478;2023-08-07T13:13:42;100702.81;;;26.34;nan
24666;BME280;29726;53.532;-1.478;2023-08-07T13:19:09;100710.81;;;26.43;nan
24666;BME280;29726;53.532;-1.478;2023-08-07T13:21:53;100713.47;;;26.41;nan
24666;BME280;29726;53.532;-1.478;2023-08-07T13:27:21;100715.03;;;26.49;nan
24666;BME280;29726;53.532;-1.478;2023-08-07T13:30:06;100721.91;;;26.54;nan
24666;BME280;29726;53.532;-1.478;2023-08-07T13:32:50;100716.94;;;26.54;nan
24666;BME280;29726;53.532;-1.478;2023-08-07T13:35:34;100723.06;;;26.58;nan
24666;BME280;29726;53.532;-1.478;2023-08-07T13:38:18;100708.91;;;26.53;nan
24666;BME280;29726;53.532;-1.478;2023-08-07T13:41:02;100731.84;;;26.60;nan
24666;BME280;29726;53.532;-1.478;2023-08-07T13:43:47;100715.94;;;26.44;nan
24666;BME280;29726;53.532;-1.478;2023-08-07T13:46:31;100714.28;;;26.49;nan
24666;BME280;29726;53.532;-1.478;2023-08-07T13:49:15;100739.50;;;26.58;nan
24666;BME280;29726;53.532;-1.478;2023-08-07T13:51:58;100745.97;;;26.66;nan
24666;BME280;29726;53.532;-1.478;2023-08-07T13:54:42;100753.78;;;26.65;nan
24666;BME280;29726;53.532;-1.478;2023-08-07T13:57:26;100745.97;;;26.66;nan
24666;BME280;29726;53.532;-1.478;2023-08-07T14:00:11;100733.34;;;26.61;nan
24666;BME280;29726;53.532;-1.478;2023-08-07T14:02:55;100737.94;;;26.64;nan
24666;BME280;29726;53.532;-1.478;2023-08-07T14:05:39;100718.47;;;26.55;nan
24666;BME280;29726;53.532;-1.478;2023-08-07T14:08:23;100738.16;;;26.59;nan
24666;BME280;29726;53.532;-1.478;2023-08-07T14:11:07;100749.41;;;26.64;nan
24666;BME280;29726;53.532;-1.478;2023-08-07T14:13:51;100758.59;;;26.63;nan
24666;BME280;29726;53.532;-1.478;2023-08-07T14:19:19;100741.00;;;26.59;nan
24666;BME280;29726;53.532;-1.478;2023-08-07T14:22:03;100748.28;;;26.60;nan
24666;BME280;29726;53.532;-1.478;2023-08-07T14:27:31;100741.75;;;26.59;nan
24666;BME280;29726;53.532;-1.478;2023-08-07T14:30:15;100706.97;;;26.40;nan
24666;BME280;29726;53.532;-1.478;2023-08-07T14:32:59;100746.16;;;26.60;nan
24666;BME280;29726;53.532;-1.478;2023-08-07T14:35:43;100749.78;;;26.61;nan
24666;BME280;29726;53.532;-1.478;2023-08-07T14:38:27;100716.16;;;26.39;nan
24666;BME280;29726;53.532;-1.478;2023-08-07T14:41:12;100742.91;;;26.56;nan
24666;BME280;29726;53.532;-1.478;2023-08-07T14:43:56;100741.75;;;26.59;nan
24666;BME280;29726;53.532;-1.478;2023-08-07T14:46:40;100736.41;;;26.56;nan
24666;BME280;29726;53.532;-1.478;2023-08-07T14:49:24;100733.53;;;26.63;nan
24666;BME280;29726;53.532;-1.478;2023-08-07T14:52:08;100734.13;;;26.62;nan
24666;BME280;29726;53.532;-1.478;2023-08-07T14:54:52;100739.09;;;26.69;nan
24666;BME280;29726;53.532;-1.478;2023-08-07T14:57:39;100740.63;;;26.70;nan
24666;BME280;29726;53.532;-1.478;2023-08-07T15:00:23;100739.47;;;26.73;nan
24666;BME280;29726;53.532;-1.478;2023-08-07T15:03:07;100739.84;;;26.77;nan
24666;BME280;29726;53.532;-1.478;2023-08-07T15:05:51;100720.38;;;26.75;nan
24666;BME280;29726;53.532;-1.478;2023-08-07T15:08:35;100732.94;;;26.80;nan
24666;BME280;29726;53.532;-1.478;2023-08-07T15:11:19;100750.53;;;26.84;nan
24666;BME280;29726;53.532;-1.478;2023-08-07T15:14:03;100741.75;;;26.82;nan
24666;BME280;29726;53.532;-1.478;2023-08-07T15:16:48;100723.41;;;26.85;nan
24666;BME280;29726;53.532;-1.478;2023-08-07T15:19:32;100749.94;;;26.93;nan
24666;BME280;29726;53.532;-1.478;2023-08-07T15:22:16;100726.06;;;26.90;nan
24666;BME280;29726;53.532;-1.478;2023-08-07T15:25:00;100742.13;;;26.93;nan
24666;BME280;29726;53.532;-1.478;2023-08-07T15:27:43;100747.25;;;26.95;nan
24666;BME280;29726;53.532;-1.478;2023-08-07T15:30:28;100738.66;;;26.95;nan
24666;BME280;29726;53.532;-1.478;2023-08-07T15:33:12;100763.50;;;27.00;nan
24666;BME280;29726;53.532;-1.478;2023-08-07T15:35:57;100737.50;;;26.90;nan
24666;BME280;29726;53.532;-1.478;2023-08-07T15:38:41;100738.66;;;26.95;nan
24666;BME280;29726;53.532;-1.478;2023-08-07T15:41:25;100746.69;;;26.96;nan
24666;BME280;29726;53.532;-1.478;2023-08-07T15:44:09;100736.38;;;26.93;nan
24666;BME280;29726;53.532;-1.478;2023-08-07T15:46:53;100736.38;;;26.93;nan
24666;BME280;29726;53.532;-1.478;2023-08-07T15:49:37;100738.28;;;26.91;nan
24666;BME280;29726;53.532;-1.478;2023-08-07T15:52:21;100740.59;;;26.92;nan
24666;BME280;29726;53.532;-1.478;2023-08-07T15:55:05;100734.88;;;26.92;nan
24666;BME280;29726;53.532;-1.478;2023-08-07T15:57:49;100734.47;;;26.88;nan
24666;BME280;29726;53.532;-1.478;2023-08-07T16:00:34;100727.56;;;26.91;nan
24666;BME280;29726;53.532;-1.478;2023-08-07T16:03:18;100738.28;;;26.91;nan
24666;BME280;29726;53.532;-1.478;2023-08-07T16:06:05;100717.09;;;26.86;nan
24666;BME280;29726;53.532;-1.478;2023-08-07T16:08:49;100696.28;;;26.71;nan
24666;BME280;29726;53.532;-1.478;2023-08-07T16:11:33;100716.16;;;26.84;nan
24666;BME280;29726;53.532;-1.478;2023-08-07T16:14:17;100716.91;;;26.84;nan
24666;BME280;29726;53.532;-1.478;2023-08-07T16:17:01;100723.41;;;26.85;nan
24666;BME280;29726;53.532;-1.478;2023-08-07T16:22:30;100709.66;;;26.83;nan
24666;BME280;29726;53.532;-1.478;2023-08-07T16:25:13;100711.34;;;26.86;nan
24666;BME280;29726;53.532;-1.478;2023-08-07T16:27:57;100711.16;;;26.84;nan
24666;BME280;29726;53.532;-1.478;2023-08-07T16:30:41;100708.13;;;26.82;nan
24666;BME280;29726;53.532;-1.478;2023-08-07T16:33:25;100703.53;;;26.79;nan
24666;BME280;29726;53.532;-1.478;2023-08-07T16:36:09;100705.84;;;26.81;nan
24666;BME280;29726;53.532;-1.478;2023-08-07T16:38:53;100714.22;;;26.79;nan
24666;BME280;29726;53.532;-1.478;2023-08-07T16:41:38;100714.22;;;26.79;nan
24666;BME280;29726;53.532;-1.478;2023-08-07T16:44:22;100704.69;;;26.76;nan
24666;BME280;29726;53.532;-1.478;2023-08-07T16:47:06;100707.56;;;26.76;nan
24666;BME280;29726;53.532;-1.478;2023-08-07T16:49:50;100720.38;;;26.75;nan
24666;BME280;29726;53.532;-1.478;2023-08-07T16:58:02;100704.34;;;26.65;nan
24666;BME280;29726;53.532;-1.478;2023-08-07T17:00:46;100680.63;;;26.64;nan
24666;BME280;29726;53.532;-1.478;2023-08-07T17:08:58;100668.63;;;26.58;nan
24666;BME280;29726;53.532;-1.478;2023-08-07T17:11:42;100643.97;;;26.40;nan
24666;BME280;29726;53.532;-1.478;2023-08-07T17:14:26;100682.19;;;26.58;nan
24666;BME280;29726;53.532;-1.478;2023-08-07T17:17:10;100684.09;;;26.55;nan
24666;BME280;29726;53.532;-1.478;2023-08-07T17:19:54;100667.28;;;26.52;nan
24666;BME280;29726;53.532;-1.478;2023-08-07T17:22:38;100669.56;;;26.46;nan
24666;BME280;29726;53.532;-1.478;2023-08-07T17:25:22;100667.28;;;26.52;nan
24666;BME280;29726;53.532;-1.478;2023-08-07T17:28:07;100656.78;;;26.47;nan
24666;BME280;29726;53.532;-1.478;2023-08-07T17:30:50;100656.59;;;26.45;nan
24666;BME280;29726;53.532;-1.478;2023-08-07T17:33:34;100713.09;;;26.14;nan
24666;BME280;29726;53.532;-1.478;2023-08-07T17:36:18;100656.97;;;26.41;nan
24666;BME280;29726;53.532;-1.478;2023-08-07T17:39:03;100662.13;;;26.43;nan
24666;BME280;29726;53.532;-1.478;2023-08-07T17:41:48;100663.84;;;26.38;nan
24666;BME280;29726;53.532;-1.478;2023-08-07T17:44:32;100660.59;;;26.34;nan
24666;BME280;29726;53.532;-1.478;2023-08-07T17:47:16;100658.50;;;26.35;nan
24666;BME280;29726;53.532;-1.478;2023-08-07T17:50:01;100626.47;;;26.14;nan
24666;BME280;29726;53.532;-1.478;2023-08-07T17:52:44;100672.63;;;26.33;nan
24666;BME280;29726;53.532;-1.478;2023-08-07T17:55:28;100661.38;;;26.27;nan
24666;BME280;29726;53.532;-1.478;2023-08-07T17:58:13;100658.88;;;26.24;nan
24666;BME280;29726;53.532;-1.478;2023-08-07T18:03:42;100652.78;;;26.20;nan
24666;BME280;29726;53.532;-1.478;2023-08-07T18:09:11;100639.44;;;26.15;nan
24666;BME280;29726;53.532;-1.478;2023-08-07T18:11:55;100641.34;;;26.12;nan
24666;BME280;29726;53.532;-1.478;2023-08-07T18:14:40;100629.88;;;26.05;nan
24666;BME280;29726;53.532;-1.478;2023-08-07T18:17:24;100639.06;;;26.03;nan
24666;BME280;29726;53.532;-1.478;2023-08-07T18:22:53;100632.94;;;25.99;nan
24666;BME280;29726;53.532;-1.478;2023-08-07T18:25:37;100628.16;;;25.94;nan
24666;BME280;29726;53.532;-1.478;2023-08-07T18:28:21;100642.47;;;25.94;nan
24666;BME280;29726;53.532;-1.478;2023-08-07T18:33:49;100624.53;;;25.86;nan
24666;BME280;29726;53.532;-1.478;2023-08-07T18:36:33;100618.78;;;25.79;nan
24666;BME280;29726;53.532;-1.478;2023-08-07T18:42:04;100615.72;;;25.77;nan
24666;BME280;29726;53.532;-1.478;2023-08-07T18:44:48;100616.69;;;25.72;nan
24666;BME280;29726;53.532;-1.478;2023-08-07T18:47:32;100611.13;;;25.66;nan
24666;BME280;29726;53.532;-1.478;2023-08-07T18:50:17;100617.63;;;25.67;nan
24666;BME280;29726;53.532;-1.478;2023-08-07T18:53:01;100608.44;;;25.61;nan
24666;BME280;29726;53.532;-1.478;2023-08-07T18:55:46;100604.25;;;25.55;nan
24666;BME280;29726;53.532;-1.478;2023-08-07T18:58:30;100613.78;;;25.57;nan
24666;BME280;29726;53.532;-1.478;2023-08-07T19:01:14;100593.56;;;25.48;nan
24666;BME280;29726;53.532;-1.478;2023-08-07T19:03:58;100605.00;;;25.48;nan
24666;BME280;29726;53.532;-1.478;2023-08-07T19:06:42;100608.78;;;25.43;nan
24666;BME280;29726;53.532;-1.478;2023-08-07T19:09:26;100607.28;;;25.42;nan
24666;BME280;29726;53.532;-1.478;2023-08-07T19:12:10;100578.19;;;25.15;nan
24666;BME280;29726;53.532;-1.478;2023-08-07T19:17:38;100605.34;;;25.29;nan
24666;BME280;29726;53.532;-1.478;2023-08-07T19:20:23;100603.03;;;25.20;nan
24666;BME280;29726;53.532;-1.478;2023-08-07T19:23:07;100594.59;;;25.15;nan
24666;BME280;29726;53.532;-1.478;2023-08-07T19:25:53;100596.47;;;25.12;nan
24666;BME280;29726;53.532;-1.478;2023-08-07T19:28:37;100612.88;;;25.12;nan
24666;BME280;29726;53.532;-1.478;2023-08-07T19:31:21;100571.25;;;24.88;nan
24666;BME280;29726;53.532;-1.478;2023-08-07T19:34:05;100601.03;;;25.00;nan
24666;BME280;29726;53.532;-1.478;2023-08-07T19:36:51;100598.88;;;24.93;nan
24666;BME280;29726;53.532;-1.478;2023-08-07T19:39:35;100602.13;;;24.90;nan
24666;BME280;29726;53.532;-1.478;2023-08-07T19:42:19;100595.22;;;24.85;nan
24666;BME280;29726;53.532;-1.478;2023-08-07T19:45:03;100612.34;;;24.78;nan
24666;BME280;29726;53.532;-1.478;2023-08-07T19:47:47;100608.94;;;24.79;nan
24666;BME280;29726;53.532;-1.478;2023-08-07T19:53:16;100610.75;;;24.69;nan
24666;BME280;29726;53.532;-1.478;2023-08-07T19:56:01;100613.41;;;24.67;nan